createdAt,value
2022-08-16T00:01:06.941Z,20.60
2022-08-16T00:03:37.835Z,20.50
2022-08-16T00:06:05.133Z,20.60
2022-08-16T00:08:36.913Z,20.60
2022-08-16T00:11:15.041Z,20.60
2022-08-16T00:13:53.574Z,20.70
2022-08-16T00:17:05.552Z,20.70
2022-08-16T00:19:18.430Z,20.60
2022-08-16T00:21:46.545Z,20.60
2022-08-16T00:24:30.973Z,20.80
2022-08-16T00:27:01.554Z,20.50
2022-08-16T00:29:29.714Z,20.70
2022-08-16T00:32:00.764Z,20.60
2022-08-16T00:34:43.359Z,20.70
2022-08-16T00:37:17.041Z,20.70
2022-08-16T00:45:06.459Z,20.60
2022-08-16T00:47:42.721Z,20.50
2022-08-16T01:10:31.529Z,20.30
2022-08-16T01:49:23.891Z,20.50
2022-08-16T01:54:58.145Z,20.40
2022-08-16T01:57:27.189Z,20.90
2022-08-16T01:59:54.535Z,20.00
2022-08-16T02:02:27.102Z,20.40
2022-08-16T02:04:56.421Z,20.40
2022-08-16T02:07:24.537Z,20.50
2022-08-16T02:09:57.207Z,20.40
2022-08-16T02:12:39.802Z,20.30
2022-08-16T02:15:25.566Z,20.30
2022-08-16T02:17:56.774Z,20.80
2022-08-16T02:20:26.108Z,20.40
2022-08-16T02:22:55.380Z,20.30
2022-08-16T02:25:23.086Z,20.30
2022-08-16T02:27:51.148Z,20.40
2022-08-16T02:30:37.904Z,20.30
2022-08-16T02:33:11.037Z,20.50
2022-08-16T02:35:54.513Z,20.20
2022-08-16T02:38:26.934Z,20.30
2022-08-16T02:40:54.996Z,20.20
2022-08-16T02:43:26.805Z,20.20
2022-08-16T02:45:54.812Z,20.20
2022-08-16T02:48:28.627Z,20.20
2022-08-16T02:51:06.181Z,20.30
2022-08-16T02:53:43.631Z,20.30
2022-08-16T03:11:42.057Z,19.60
2022-08-16T03:22:13.152Z,20.10
2022-08-16T03:24:46.692Z,20.10
2022-08-16T03:57:31.422Z,19.80
2022-08-16T04:00:35.683Z,20.40
2022-08-16T04:38:31.597Z,19.40
2022-08-16T04:43:26.961Z,19.50
2022-08-16T04:46:00.170Z,19.50
2022-08-16T04:48:32.515Z,19.60
2022-08-16T04:51:00.922Z,19.80
2022-08-16T04:53:28.724Z,19.70
2022-08-16T05:06:42.317Z,19.80
2022-08-16T05:09:12.602Z,19.90
2022-08-16T05:11:39.495Z,19.80
2022-08-16T05:14:07.443Z,19.60
2022-08-16T05:16:35.848Z,19.70
2022-08-16T05:19:13.172Z,19.80
2022-08-16T05:21:43.089Z,19.80
2022-08-16T05:24:09.898Z,19.60
2022-08-16T05:26:43.304Z,19.70
2022-08-16T05:29:17.318Z,19.60
2022-08-16T05:31:48.399Z,19.90
2022-08-16T05:34:22.327Z,19.70
2022-08-16T05:36:51.149Z,19.80
2022-08-16T05:39:20.536Z,19.90
2022-08-16T05:41:49.060Z,20.00
2022-08-16T05:44:23.619Z,20.10
2022-08-16T05:47:00.047Z,20.20
2022-08-16T05:49:39.305Z,20.20
2022-08-16T05:52:10.737Z,20.50
2022-08-16T05:54:46.861Z,20.60
2022-08-16T05:57:18.731Z,20.60
2022-08-16T05:59:50.572Z,20.70
2022-08-16T06:02:33.476Z,20.40
2022-08-16T06:05:00.571Z,20.80
2022-08-16T06:07:29.469Z,21.00
2022-08-16T06:10:00.207Z,21.30
2022-08-16T06:12:31.131Z,20.80
2022-08-16T06:15:07.640Z,20.70
2022-08-16T06:17:52.328Z,20.70
2022-08-16T06:20:25.602Z,20.70
2022-08-16T06:23:03.538Z,20.70
2022-08-16T06:25:36.474Z,20.50
2022-08-16T06:28:09.267Z,20.50
2022-08-16T06:30:44.097Z,20.50
2022-08-16T06:33:22.382Z,20.60
2022-08-16T06:35:55.166Z,20.60
2022-08-16T06:38:32.228Z,20.60
2022-08-16T06:41:05.589Z,20.70
2022-08-16T06:43:47.372Z,20.90
2022-08-16T06:46:31.578Z,20.90
2022-08-16T06:49:44.195Z,21.00
2022-08-16T06:52:57.672Z,21.30
2022-08-16T06:55:13.041Z,21.40
2022-08-16T06:57:40.948Z,21.60
2022-08-16T07:00:24.050Z,21.70
2022-08-16T07:02:53.617Z,21.60
2022-08-16T07:05:27.009Z,21.50
2022-08-16T07:08:11.647Z,21.80
2022-08-16T07:10:41.637Z,21.80
2022-08-16T07:13:11.649Z,22.00
2022-08-16T07:15:50.732Z,21.90
2022-08-16T07:18:21.678Z,22.10
2022-08-16T07:21:02.373Z,22.00
2022-08-16T07:23:37.023Z,22.00
2022-08-16T07:26:09.863Z,22.20
2022-08-16T07:28:37.843Z,22.80
2022-08-16T07:31:06.070Z,23.10
2022-08-16T07:33:53.686Z,23.60
2022-08-16T07:36:22.781Z,23.70
2022-08-16T07:38:50.156Z,23.60
2022-08-16T07:41:17.492Z,23.70
2022-08-16T07:43:46.230Z,23.50
2022-08-16T07:46:38.527Z,23.60
2022-08-16T07:49:11.467Z,24.20
2022-08-16T07:51:40.483Z,24.70
2022-08-16T08:01:38.487Z,24.50
2022-08-16T08:09:07.916Z,24.50
2022-08-16T08:11:35.216Z,24.60
2022-08-16T08:14:06.704Z,24.70
2022-08-16T08:16:35.728Z,24.70
2022-08-16T08:19:04.908Z,24.90
2022-08-16T08:22:00.554Z,25.00
2022-08-16T08:27:05.869Z,25.00
2022-08-16T08:35:08.808Z,25.50
2022-08-16T08:43:12.399Z,25.70
2022-08-16T08:45:57.143Z,25.70
2022-08-16T08:51:38.812Z,25.90
2022-08-16T08:54:14.215Z,26.30
2022-08-16T08:56:47.540Z,26.30
2022-08-16T08:59:20.201Z,26.30
2022-08-16T09:01:56.275Z,26.40
2022-08-16T09:04:25.369Z,26.50
2022-08-16T09:06:56.137Z,26.50
2022-08-16T09:12:36.358Z,26.70
2022-08-16T09:15:32.836Z,26.80
2022-08-16T09:18:26.583Z,26.90
2022-08-16T09:23:58.449Z,27.20
2022-08-16T09:26:45.537Z,27.30
2022-08-16T09:29:24.162Z,27.50
2022-08-16T09:32:30.242Z,27.50
2022-08-16T09:37:36.543Z,27.50
2022-08-16T09:40:29.362Z,27.60
2022-08-16T09:43:05.816Z,27.80
2022-08-16T09:48:36.828Z,27.80
2022-08-16T09:53:39.791Z,27.90
2022-08-16T09:59:03.629Z,28.10
2022-08-16T10:01:36.347Z,28.30
2022-08-16T10:09:26.132Z,28.60
2022-08-16T10:12:42.475Z,28.60
2022-08-16T10:15:16.002Z,28.70
2022-08-16T10:17:59.527Z,28.50
2022-08-16T10:20:43.421Z,28.40
2022-08-16T10:23:17.219Z,28.50
2022-08-16T10:27:19.647Z,28.40
2022-08-16T10:28:42.357Z,28.70
2022-08-16T10:32:10.118Z,28.60
2022-08-16T10:34:47.224Z,28.70
2022-08-16T10:37:18.337Z,28.80
2022-08-16T10:40:29.144Z,28.60
2022-08-16T10:43:03.516Z,28.60
2022-08-16T10:52:01.992Z,28.70
2022-08-16T10:57:48.496Z,29.10
2022-08-16T11:23:04.237Z,29.50
2022-08-16T11:34:20.969Z,29.60
2022-08-16T11:43:36.436Z,29.50
2022-08-16T11:46:44.141Z,29.50
2022-08-16T11:49:02.011Z,29.30
2022-08-16T11:51:28.875Z,28.80
2022-08-16T11:53:59.955Z,28.70
2022-08-16T11:56:51.537Z,28.70
2022-08-16T11:59:13.889Z,28.70
2022-08-16T12:01:54.865Z,28.80
2022-08-16T12:04:29.040Z,29.00
2022-08-16T12:06:59.678Z,29.10
2022-08-16T12:09:43.904Z,28.90
2022-08-16T12:12:13.573Z,29.40
2022-08-16T12:14:54.422Z,29.30
2022-08-16T12:17:31.951Z,29.30
2022-08-16T12:20:15.836Z,29.40
2022-08-16T12:22:45.970Z,29.50
2022-08-16T12:25:18.303Z,29.40
2022-08-16T12:28:10.140Z,29.40
2022-08-16T12:30:41.768Z,29.20
2022-08-16T12:33:14.592Z,29.10
2022-08-16T12:35:52.095Z,28.80
2022-08-16T12:38:40.826Z,28.70
2022-08-16T12:41:05.804Z,28.60
2022-08-16T12:43:35.539Z,28.50
2022-08-16T12:46:04.629Z,28.60
2022-08-16T12:51:25.217Z,28.80
2022-08-16T12:54:01.499Z,29.10
2022-08-16T12:56:33.588Z,29.30
2022-08-16T12:59:05.140Z,29.30
2022-08-16T13:01:33.423Z,29.40
2022-08-16T13:04:20.510Z,29.20
2022-08-16T13:06:48.969Z,29.30
2022-08-16T13:09:26.477Z,29.50
2022-08-16T13:12:16.640Z,29.70
2022-08-16T13:14:44.384Z,29.70
2022-08-16T13:17:18.907Z,29.70
2022-08-16T13:20:08.101Z,29.70
2022-08-16T13:28:02.495Z,29.40
2022-08-16T13:30:35.762Z,29.30
2022-08-16T13:35:44.202Z,29.50
2022-08-16T13:38:21.599Z,29.50
2022-08-16T13:40:56.687Z,29.30
2022-08-16T13:43:26.571Z,29.00
2022-08-16T13:48:25.226Z,28.80
2022-08-16T13:50:55.165Z,28.70
2022-08-16T13:53:24.927Z,28.60
2022-08-16T13:55:58.798Z,28.70
2022-08-16T13:58:36.383Z,28.60
2022-08-16T14:01:10.031Z,28.50
2022-08-16T14:03:38.549Z,28.40
2022-08-16T14:06:11.148Z,28.50
2022-08-16T14:08:43.190Z,28.50
2022-08-16T14:11:12.489Z,28.70
2022-08-16T14:13:42.213Z,28.70
2022-08-16T14:16:24.075Z,28.80
2022-08-16T14:18:57.150Z,28.80
2022-08-16T14:21:24.105Z,28.70
2022-08-16T14:23:54.446Z,28.60
2022-08-16T14:26:25.019Z,28.60
2022-08-16T14:28:52.594Z,28.50
2022-08-16T14:31:21.477Z,28.40
2022-08-16T14:33:50.368Z,28.60
2022-08-16T14:36:29.570Z,28.50
2022-08-16T14:38:58.028Z,28.90
2022-08-16T14:41:25.344Z,28.70
2022-08-16T14:43:55.237Z,28.70
2022-08-16T14:46:22.041Z,28.60
2022-08-16T14:48:48.828Z,28.70
2022-08-16T14:51:20.135Z,28.60
2022-08-16T14:53:52.730Z,28.60
2022-08-16T14:56:38.401Z,28.50
2022-08-16T15:02:34.557Z,27.90
2022-08-16T15:05:04.829Z,28.40
2022-08-16T15:07:35.429Z,28.50
2022-08-16T15:10:03.628Z,28.40
2022-08-16T15:12:33.956Z,28.40
2022-08-16T15:15:04.428Z,28.30
2022-08-16T15:17:42.431Z,28.40
2022-08-16T15:20:21.914Z,28.40
2022-08-16T15:22:52.033Z,28.50
2022-08-16T15:25:35.215Z,28.60
2022-08-16T15:28:05.434Z,28.50
2022-08-16T15:30:56.708Z,28.30
2022-08-16T15:33:25.758Z,28.10
2022-08-16T15:35:55.196Z,28.10
2022-08-16T15:38:54.668Z,28.10
2022-08-16T15:41:10.052Z,28.00
2022-08-16T15:43:42.265Z,27.90
2022-08-16T15:46:34.951Z,27.80
2022-08-16T15:49:14.600Z,27.80
2022-08-16T15:51:45.683Z,27.80
2022-08-16T15:54:29.631Z,27.70
2022-08-16T15:57:02.706Z,27.70
2022-08-16T15:59:48.177Z,27.80
2022-08-16T16:02:27.562Z,27.70
2022-08-16T16:08:12.216Z,27.80
2022-08-16T16:16:16.308Z,28.20
2022-08-16T16:18:49.066Z,28.30
2022-08-16T16:30:37.345Z,28.10
2022-08-16T16:33:15.858Z,27.90
2022-08-16T16:35:55.704Z,27.90
2022-08-16T16:38:29.030Z,27.90
2022-08-16T16:41:00.195Z,27.60
2022-08-16T16:43:31.666Z,27.70
2022-08-16T16:51:09.022Z,27.40
2022-08-16T16:53:42.158Z,27.30
2022-08-16T16:56:20.390Z,27.20
2022-08-16T16:58:57.913Z,27.00
2022-08-16T17:01:56.904Z,26.90
2022-08-16T17:04:31.682Z,26.80
2022-08-16T17:09:28.048Z,26.60
2022-08-16T17:11:56.514Z,26.60
2022-08-16T17:17:02.367Z,26.00
2022-08-16T17:19:31.506Z,26.20
2022-08-16T17:21:59.387Z,26.30
2022-08-16T17:24:39.397Z,26.00
2022-08-16T17:27:08.826Z,26.10
2022-08-16T17:29:42.932Z,25.80
2022-08-16T17:32:47.260Z,25.80
2022-08-16T17:35:08.614Z,25.80
2022-08-16T17:37:50.679Z,25.60
2022-08-16T17:40:37.316Z,25.50
2022-08-16T17:43:06.594Z,25.50
2022-08-16T17:45:33.325Z,25.40
2022-08-16T17:48:00.077Z,25.40
2022-08-16T17:50:29.032Z,25.40
2022-08-16T17:52:57.067Z,25.50
2022-08-16T17:55:31.033Z,25.20
2022-08-16T17:57:58.819Z,25.40
2022-08-16T18:00:28.464Z,25.20
2022-08-16T18:02:58.573Z,25.30
2022-08-16T18:05:31.215Z,25.20
2022-08-16T18:07:58.168Z,25.00
2022-08-16T18:10:32.577Z,24.80
2022-08-16T18:13:01.616Z,24.90
2022-08-16T18:15:29.019Z,25.00
2022-08-16T18:20:42.875Z,24.70
2022-08-16T18:23:24.909Z,24.70
2022-08-16T18:25:55.243Z,24.60
2022-08-16T18:28:22.915Z,24.50
2022-08-16T18:30:52.344Z,24.40
2022-08-16T18:33:24.443Z,24.30
2022-08-16T18:35:57.035Z,24.30
2022-08-16T18:38:24.511Z,24.20
2022-08-16T18:40:51.808Z,24.20
2022-08-16T18:43:21.959Z,24.00
2022-08-16T18:46:08.779Z,24.00
2022-08-16T18:48:35.708Z,23.90
2022-08-16T18:51:08.399Z,23.90
2022-08-16T18:53:38.362Z,23.80
2022-08-16T18:56:05.291Z,23.70
2022-08-16T18:58:35.570Z,23.50
2022-08-16T19:01:02.386Z,23.50
2022-08-16T19:03:32.222Z,23.40
2022-08-16T19:06:02.839Z,23.40
2022-08-16T19:08:30.424Z,23.40
2022-08-16T19:10:57.471Z,23.20
2022-08-16T19:13:27.199Z,23.20
2022-08-16T19:15:56.764Z,23.10
2022-08-16T19:18:24.247Z,23.10
2022-08-16T19:20:51.872Z,23.00
2022-08-16T19:23:22.356Z,23.00
2022-08-16T19:25:54.429Z,22.80
2022-08-16T19:28:49.993Z,22.80
2022-08-16T19:31:16.047Z,22.70
2022-08-16T19:33:53.583Z,22.70
2022-08-16T19:36:30.897Z,22.60
2022-08-16T19:39:04.554Z,22.50
2022-08-16T19:41:33.155Z,22.60
2022-08-16T19:43:59.921Z,22.40
2022-08-16T19:46:26.661Z,22.40
2022-08-16T19:48:53.432Z,22.40
2022-08-16T19:51:20.171Z,22.40
2022-08-16T19:53:46.990Z,22.40
2022-08-16T19:56:13.812Z,22.30
2022-08-16T19:58:56.103Z,22.30
2022-08-16T20:01:27.412Z,22.30
2022-08-16T20:03:54.575Z,22.20
2022-08-16T20:06:37.842Z,22.20
2022-08-16T20:09:06.744Z,22.10
2022-08-16T20:11:34.999Z,22.20
2022-08-16T20:14:02.408Z,22.00
2022-08-16T20:16:29.371Z,22.00
2022-08-16T20:18:56.190Z,22.00
2022-08-16T20:21:23.177Z,21.90
2022-08-16T20:23:50.189Z,21.90
2022-08-16T20:26:18.773Z,21.90
2022-08-16T20:28:53.378Z,21.90
2022-08-16T20:31:23.633Z,21.80
2022-08-16T20:33:51.972Z,21.80
2022-08-16T20:36:18.932Z,21.80
2022-08-16T20:38:47.892Z,21.80
2022-08-16T20:41:16.073Z,21.70
2022-08-16T20:43:43.611Z,21.70
2022-08-16T20:46:12.934Z,21.70
2022-08-16T20:48:39.840Z,21.70
2022-08-16T20:51:10.432Z,21.60
2022-08-16T20:53:42.220Z,21.60
2022-08-16T20:56:11.154Z,21.70
2022-08-16T20:58:38.162Z,21.70
2022-08-16T21:01:06.666Z,21.60
2022-08-16T21:03:33.801Z,21.50
2022-08-16T21:06:04.410Z,21.50
2022-08-16T21:08:52.189Z,21.50
2022-08-16T21:11:21.532Z,21.40
2022-08-16T21:13:48.439Z,21.40
2022-08-16T21:16:16.911Z,21.30
2022-08-16T21:18:43.801Z,21.40
2022-08-16T21:21:12.106Z,21.30
2022-08-16T21:23:39.479Z,21.20
2022-08-16T21:26:10.745Z,21.20
2022-08-16T21:28:41.719Z,21.20
2022-08-16T21:31:14.024Z,21.20
2022-08-16T21:33:41.246Z,21.10
2022-08-16T21:36:08.477Z,21.10
2022-08-16T21:38:35.674Z,21.10
2022-08-16T21:41:04.285Z,21.10
2022-08-16T21:43:33.330Z,21.10
2022-08-16T21:46:02.143Z,21.00
2022-08-16T21:48:33.600Z,21.00
2022-08-16T21:51:06.801Z,20.90
2022-08-16T21:53:34.530Z,20.90
2022-08-16T21:56:02.175Z,20.90
2022-08-16T21:58:29.766Z,20.90
2022-08-16T22:00:56.814Z,20.80
2022-08-16T22:03:24.070Z,20.80
2022-08-16T22:06:11.596Z,20.80
2022-08-16T22:08:50.118Z,20.70
2022-08-16T22:11:22.356Z,20.70
2022-08-16T22:13:57.328Z,20.70
2022-08-16T22:16:36.437Z,20.70
2022-08-16T22:19:04.376Z,20.70
2022-08-16T22:21:32.352Z,20.70
2022-08-16T22:23:59.561Z,20.70
2022-08-16T22:26:34.646Z,20.60
2022-08-16T22:29:05.001Z,20.60
2022-08-16T22:31:32.515Z,20.50
2022-08-16T22:34:01.937Z,20.50
2022-08-16T22:36:29.978Z,20.50
2022-08-16T22:38:59.054Z,20.50
2022-08-16T22:41:28.046Z,20.40
2022-08-16T22:43:55.146Z,20.40
2022-08-16T22:46:22.035Z,20.40
2022-08-16T22:48:51.604Z,20.40
2022-08-16T22:51:19.733Z,20.30
2022-08-16T22:53:46.565Z,20.30
2022-08-16T22:56:15.717Z,20.30
2022-08-16T22:58:43.001Z,20.30
2022-08-16T23:01:10.410Z,20.30
2022-08-16T23:03:38.067Z,20.30
2022-08-16T23:06:06.336Z,20.30
2022-08-16T23:08:38.941Z,20.30
2022-08-16T23:11:20.034Z,20.10
2022-08-16T23:13:52.942Z,20.20
2022-08-16T23:16:23.208Z,20.10
2022-08-16T23:18:53.378Z,20.10
2022-08-16T23:21:21.007Z,20.00
2022-08-16T23:23:49.088Z,20.10
2022-08-16T23:26:46.316Z,20.00
2022-08-16T23:29:04.760Z,20.00
2022-08-16T23:31:32.592Z,19.90
2022-08-16T23:33:59.931Z,20.00
2022-08-16T23:36:26.751Z,19.90
2022-08-16T23:38:53.726Z,20.00
2022-08-16T23:41:20.537Z,19.90
2022-08-16T23:43:47.327Z,19.90
2022-08-16T23:46:17.934Z,19.90
2022-08-16T23:49:45.145Z,19.90
2022-08-16T23:51:32.622Z,19.90
2022-08-16T23:54:00.582Z,19.90
2022-08-16T23:56:27.380Z,19.80
2022-08-16T23:59:02.978Z,19.90
